createdAt,value
2022-11-27T00:00:10.866Z,64.23
2022-11-27T00:05:14.328Z,64.38
2022-11-27T00:10:17.992Z,64.06
2022-11-27T00:15:22.854Z,63.96
2022-11-27T00:20:29.568Z,63.59
2022-11-27T00:25:33.364Z,63.69
2022-11-27T00:30:38.138Z,63.44
2022-11-27T00:35:41.418Z,63.48
2022-11-27T00:40:44.862Z,63.53
2022-11-27T00:45:51.560Z,64.12
2022-11-27T00:51:00.960Z,63.76
2022-11-27T00:56:04.624Z,63.94
2022-11-27T01:01:09.892Z,63.58
2022-11-27T01:06:13.800Z,63.85
2022-11-27T01:11:19.305Z,63.91
2022-11-27T01:16:26.347Z,63.85
2022-11-27T01:21:32.344Z,64.10
2022-11-27T01:26:35.893Z,64.13
2022-11-27T01:31:41.437Z,64.41
2022-11-27T01:36:45.386Z,64.77
2022-11-27T01:41:49.868Z,64.28
2022-11-27T01:46:57.062Z,64.23
2022-11-27T01:52:03.355Z,64.00
2022-11-27T01:57:09.645Z,64.73
2022-11-27T02:02:14.450Z,64.30
2022-11-27T02:07:17.854Z,64.06
2022-11-27T02:12:26.144Z,63.89
2022-11-27T02:17:37.810Z,64.32
2022-11-27T02:22:57.972Z,63.99
2022-11-27T02:28:15.728Z,64.66
2022-11-27T02:33:23.144Z,64.96
2022-11-27T02:38:31.716Z,64.79
2022-11-27T02:43:38.985Z,64.51
2022-11-27T02:48:48.153Z,64.72
2022-11-27T02:53:55.192Z,64.70
2022-11-27T02:59:02.964Z,64.24
2022-11-27T03:04:11.292Z,64.56
2022-11-27T03:09:19.403Z,64.58
2022-11-27T03:14:24.914Z,64.52
2022-11-27T03:19:38.668Z,64.36
2022-11-27T03:24:42.498Z,64.59
2022-11-27T03:29:51.279Z,64.38
2022-11-27T03:34:56.838Z,64.06
2022-11-27T03:40:00.185Z,64.35
2022-11-27T03:45:09.826Z,64.44
2022-11-27T03:50:34.887Z,64.92
2022-11-27T03:55:42.695Z,64.50
2022-11-27T04:00:46.908Z,64.25
2022-11-27T04:05:51.637Z,65.00
2022-11-27T04:10:54.721Z,64.38
2022-11-27T04:16:02.344Z,64.63
2022-11-27T04:21:07.483Z,65.12
2022-11-27T04:26:11.030Z,65.14
2022-11-27T04:31:14.613Z,64.86
2022-11-27T04:36:19.251Z,64.20
2022-11-27T04:41:22.656Z,64.82
2022-11-27T04:46:25.978Z,65.18
2022-11-27T04:51:30.664Z,64.10
2022-11-27T04:56:33.653Z,64.28
2022-11-27T05:01:37.288Z,64.16
2022-11-27T05:06:42.091Z,64.04
2022-11-27T05:11:45.428Z,64.38
2022-11-27T05:16:50.227Z,64.21
2022-11-27T05:21:55.646Z,64.11
2022-11-27T05:26:59.372Z,64.12
2022-11-27T05:32:02.851Z,64.43
2022-11-27T05:37:07.566Z,64.20
2022-11-27T05:42:10.705Z,64.43
2022-11-27T05:47:13.925Z,64.29
2022-11-27T05:52:18.619Z,64.11
2022-11-27T05:57:22.165Z,64.21
2022-11-27T06:02:29.412Z,64.45
2022-11-27T06:07:34.502Z,64.11
2022-11-27T06:12:37.566Z,64.49
2022-11-27T06:17:41.188Z,64.15
2022-11-27T06:22:45.981Z,64.85
2022-11-27T06:27:49.087Z,64.77
2022-11-27T06:32:52.742Z,65.50
2022-11-27T06:37:57.453Z,65.69
2022-11-27T06:43:01.065Z,65.10
2022-11-27T06:48:04.511Z,64.37
2022-11-27T06:53:09.165Z,64.83
2022-11-27T06:58:12.485Z,64.80
2022-11-27T07:03:15.885Z,64.69
2022-11-27T07:08:20.807Z,64.32
2022-11-27T07:13:25.414Z,63.99
2022-11-27T07:18:28.704Z,63.91
2022-11-27T07:23:33.523Z,63.27
2022-11-27T07:28:36.580Z,62.61
2022-11-27T07:33:39.990Z,62.92
2022-11-27T07:38:46.776Z,62.26
2022-11-27T07:43:50.541Z,61.76
2022-11-27T07:48:54.116Z,61.99
2022-11-27T07:53:58.903Z,61.78
2022-11-27T07:59:02.010Z,61.76
2022-11-27T08:04:05.390Z,61.51
2022-11-27T08:09:10.054Z,61.45
2022-11-27T08:14:15.012Z,61.32
2022-11-27T08:19:18.187Z,61.32
2022-11-27T08:24:22.992Z,61.37
2022-11-27T08:29:31.185Z,61.20
2022-11-27T08:34:37.318Z,61.50
2022-11-27T08:39:41.944Z,60.99
2022-11-27T08:44:45.137Z,61.33
2022-11-27T08:49:48.550Z,60.21
2022-11-27T08:54:57.351Z,59.54
2022-11-27T09:00:01.216Z,60.46
2022-11-27T09:05:06.832Z,60.00
2022-11-27T09:10:12.125Z,60.04
2022-11-27T09:15:15.597Z,60.04
2022-11-27T09:20:19.650Z,60.08
2022-11-27T09:25:24.327Z,60.09
2022-11-27T09:30:27.536Z,60.20
2022-11-27T09:35:30.933Z,59.94
2022-11-27T09:40:36.265Z,60.12
2022-11-27T09:45:45.693Z,60.37
2022-11-27T09:50:53.437Z,60.41
2022-11-27T09:56:00.255Z,60.37
2022-11-27T10:01:10.755Z,60.76
2022-11-27T10:06:25.629Z,60.61
2022-11-27T10:11:34.209Z,60.91
2022-11-27T10:16:44.686Z,60.48
2022-11-27T10:21:53.757Z,60.48
2022-11-27T10:27:00.490Z,60.94
2022-11-27T10:32:26.743Z,60.63
2022-11-27T10:37:41.218Z,60.48
2022-11-27T10:42:51.042Z,60.45
2022-11-27T10:47:54.361Z,60.03
2022-11-27T10:53:01.573Z,59.48
2022-11-27T10:58:12.434Z,60.16
2022-11-27T11:03:19.252Z,60.11
2022-11-27T11:08:24.565Z,60.78
2022-11-27T11:13:31.004Z,60.63
2022-11-27T11:18:36.693Z,59.97
2022-11-27T11:23:42.435Z,60.16
2022-11-27T11:28:51.903Z,59.86
2022-11-27T11:33:59.953Z,60.46
2022-11-27T11:39:03.342Z,61.04
2022-11-27T11:44:21.453Z,60.86
2022-11-27T11:49:27.367Z,60.76
2022-11-27T11:54:44.127Z,61.67
2022-11-27T11:59:55.817Z,61.74
2022-11-27T12:05:28.204Z,61.83
2022-11-27T12:10:40.364Z,62.51
2022-11-27T12:15:51.626Z,62.66
2022-11-27T12:21:07.916Z,62.52
2022-11-27T12:26:22.601Z,62.04
2022-11-27T12:31:42.004Z,62.17
2022-11-27T12:37:04.141Z,62.97
2022-11-27T12:42:22.158Z,63.05
2022-11-27T12:47:34.952Z,62.89
2022-11-27T12:52:42.733Z,62.76
2022-11-27T12:57:50.758Z,63.23
2022-11-27T13:03:04.154Z,62.62
2022-11-27T13:08:14.774Z,63.41
2022-11-27T13:13:24.578Z,63.38
2022-11-27T13:18:35.217Z,63.13
2022-11-27T13:23:38.900Z,63.24
2022-11-27T13:28:45.843Z,62.80
2022-11-27T13:33:52.388Z,63.61
2022-11-27T13:38:59.307Z,63.40
2022-11-27T13:44:04.880Z,63.60
2022-11-27T13:49:27.700Z,63.14
2022-11-27T13:54:31.362Z,63.13
2022-11-27T13:59:39.159Z,63.70
2022-11-27T14:04:56.104Z,64.04
2022-11-27T14:10:10.138Z,64.59
2022-11-27T14:15:23.981Z,64.06
2022-11-27T14:20:33.732Z,64.13
2022-11-27T14:25:37.546Z,64.46
2022-11-27T14:30:46.043Z,64.48
2022-11-27T14:35:52.446Z,64.46
2022-11-27T14:41:07.978Z,64.16
2022-11-27T14:46:16.587Z,64.41
2022-11-27T14:51:24.543Z,64.05
2022-11-27T14:56:32.686Z,64.68
2022-11-27T15:01:37.444Z,64.05
2022-11-27T15:06:45.437Z,63.85
2022-11-27T15:11:56.819Z,64.17
2022-11-27T15:17:00.899Z,64.34
2022-11-27T15:22:06.668Z,63.64
2022-11-27T15:27:19.110Z,64.00
2022-11-27T15:32:25.586Z,64.10
2022-11-27T15:37:34.686Z,64.19
2022-11-27T15:42:38.550Z,63.92
2022-11-27T15:47:42.747Z,63.55
2022-11-27T15:52:48.835Z,63.89
2022-11-27T15:57:55.666Z,64.16
2022-11-27T16:02:59.445Z,64.40
2022-11-27T16:08:05.938Z,64.08
2022-11-27T16:13:09.992Z,64.51
2022-11-27T16:18:13.714Z,64.42
2022-11-27T16:23:18.519Z,64.32
2022-11-27T16:28:21.994Z,64.25
2022-11-27T16:33:27.243Z,64.48
2022-11-27T16:38:34.351Z,64.47
2022-11-27T16:43:42.170Z,63.97
2022-11-27T16:48:47.010Z,64.16
2022-11-27T16:53:52.677Z,63.58
2022-11-27T16:59:01.156Z,63.77
2022-11-27T17:04:09.323Z,64.10
2022-11-27T17:09:17.117Z,64.26
2022-11-27T17:14:23.183Z,63.84
2022-11-27T17:19:30.272Z,63.81
2022-11-27T17:24:36.445Z,64.12
2022-11-27T17:29:41.157Z,64.22
2022-11-27T17:34:45.603Z,63.98
2022-11-27T17:39:51.033Z,63.90
2022-11-27T17:44:57.790Z,64.19
2022-11-27T17:50:04.673Z,64.17
2022-11-27T17:55:13.089Z,64.36
2022-11-27T18:00:18.904Z,65.16
2022-11-27T18:05:24.055Z,64.27
2022-11-27T18:10:31.507Z,64.57
2022-11-27T18:15:35.896Z,64.78
2022-11-27T18:20:39.400Z,64.45
2022-11-27T18:25:48.841Z,64.25
2022-11-27T18:30:53.211Z,64.17
2022-11-27T18:36:00.113Z,64.20
2022-11-27T18:41:10.207Z,63.98
2022-11-27T18:46:15.325Z,63.93
2022-11-27T18:51:21.010Z,64.63
2022-11-27T18:56:35.553Z,64.95
2022-11-27T19:01:42.232Z,64.85
2022-11-27T19:06:46.655Z,65.23
2022-11-27T19:11:52.037Z,64.44
2022-11-27T19:16:59.080Z,64.44
2022-11-27T19:22:05.306Z,64.42
2022-11-27T19:27:10.184Z,64.82
2022-11-27T19:32:13.641Z,65.20
2022-11-27T19:37:33.154Z,65.31
2022-11-27T19:42:38.705Z,64.93
2022-11-27T19:47:41.797Z,64.75
2022-11-27T19:52:45.513Z,65.35
2022-11-27T19:57:50.728Z,65.63
2022-11-27T20:02:54.112Z,65.48
2022-11-27T20:07:57.943Z,65.40
2022-11-27T20:13:03.026Z,65.47
2022-11-27T20:18:06.587Z,65.37
2022-11-27T20:23:09.880Z,65.71
2022-11-27T20:28:15.147Z,65.43
2022-11-27T20:33:19.992Z,64.90
2022-11-27T20:38:23.157Z,64.28
2022-11-27T20:43:27.746Z,64.94
2022-11-27T20:48:31.023Z,65.78
2022-11-27T20:53:34.585Z,65.85
2022-11-27T20:58:40.577Z,65.49
2022-11-27T21:03:44.053Z,65.61
2022-11-27T21:08:47.538Z,66.05
2022-11-27T21:13:52.733Z,65.54
2022-11-27T21:18:56.776Z,65.29
2022-11-27T21:24:00.702Z,65.45
2022-11-27T21:29:05.780Z,65.84
2022-11-27T21:34:10.411Z,66.11
2022-11-27T21:39:20.296Z,66.03
2022-11-27T21:44:26.109Z,66.78
2022-11-27T21:49:29.477Z,66.38
2022-11-27T21:54:32.830Z,67.10
2022-11-27T21:59:37.546Z,66.46
2022-11-27T22:04:40.876Z,66.82
2022-11-27T22:09:44.392Z,66.36
2022-11-27T22:14:50.780Z,66.62
2022-11-27T22:19:54.204Z,66.59
2022-11-27T22:24:57.697Z,67.23
2022-11-27T22:30:02.447Z,66.52
2022-11-27T22:35:07.553Z,67.11
2022-11-27T22:40:11.519Z,67.14
2022-11-27T22:45:16.646Z,66.52
2022-11-27T22:50:19.869Z,66.62
2022-11-27T22:55:23.044Z,67.46
2022-11-27T23:00:27.673Z,67.31
2022-11-27T23:05:30.876Z,67.53
2022-11-27T23:10:34.382Z,67.94
2022-11-27T23:15:39.168Z,67.19
2022-11-27T23:20:43.268Z,67.18
2022-11-27T23:25:46.530Z,67.42
2022-11-27T23:31:08.809Z,67.31
2022-11-27T23:36:14.530Z,67.39
2022-11-27T23:41:19.188Z,67.89
2022-11-27T23:46:26.485Z,67.62
2022-11-27T23:51:32.899Z,67.87
2022-11-27T23:56:36.512Z,67.85
